createdAt,value
2023-03-25T00:01:46.990Z,10.65
2023-03-25T00:04:16.333Z,10.65
2023-03-25T00:06:44.254Z,10.61
2023-03-25T00:09:12.606Z,10.57
2023-03-25T00:11:40.227Z,10.56
2023-03-25T00:14:08.268Z,10.57
2023-03-25T00:16:36.424Z,10.56
2023-03-25T00:19:04.398Z,10.57
2023-03-25T00:21:33.019Z,10.58
2023-03-25T00:24:01.615Z,10.57
2023-03-25T00:26:31.720Z,10.54
2023-03-25T00:28:59.200Z,10.53
2023-03-25T00:31:26.948Z,10.52
2023-03-25T00:33:54.517Z,10.52
2023-03-25T00:36:22.225Z,10.52
2023-03-25T00:38:50.664Z,10.53
2023-03-25T00:41:27.697Z,10.54
2023-03-25T00:43:58.640Z,10.54
2023-03-25T00:46:30.133Z,10.56
2023-03-25T00:48:59.630Z,10.59
2023-03-25T00:51:30.699Z,10.59
2023-03-25T00:53:59.945Z,10.60
2023-03-25T00:56:30.794Z,10.60
2023-03-25T00:58:58.551Z,10.61
2023-03-25T01:01:28.093Z,10.60
2023-03-25T01:03:58.071Z,10.57
2023-03-25T01:06:34.205Z,10.57
2023-03-25T01:09:06.300Z,10.56
2023-03-25T01:11:37.270Z,10.55
2023-03-25T01:14:10.727Z,10.55
2023-03-25T01:16:40.323Z,10.52
2023-03-25T01:19:07.916Z,10.50
2023-03-25T01:21:36.300Z,10.48
2023-03-25T01:24:06.014Z,10.46
2023-03-25T01:26:34.015Z,10.43
2023-03-25T01:29:01.532Z,10.44
2023-03-25T01:31:31.423Z,10.41
2023-03-25T01:34:00.231Z,10.40
2023-03-25T01:36:31.814Z,10.37
2023-03-25T01:39:00.843Z,10.38
2023-03-25T01:41:42.320Z,10.37
2023-03-25T01:44:23.673Z,10.38
2023-03-25T01:46:52.668Z,10.36
2023-03-25T01:49:29.518Z,10.34
2023-03-25T01:52:08.120Z,10.32
2023-03-25T01:54:38.145Z,10.31
2023-03-25T01:57:08.580Z,10.33
2023-03-25T01:59:38.139Z,10.35
2023-03-25T02:02:09.143Z,10.41
2023-03-25T02:04:44.904Z,10.47
2023-03-25T02:07:17.260Z,10.54
2023-03-25T02:09:52.149Z,10.60
2023-03-25T02:12:32.245Z,10.68
2023-03-25T02:15:08.123Z,10.78
2023-03-25T02:17:56.420Z,10.85
2023-03-25T02:20:46.811Z,10.91
2023-03-25T02:23:44.022Z,10.97
2023-03-25T02:26:36.997Z,11.00
2023-03-25T02:29:10.429Z,11.00
2023-03-25T02:31:52.193Z,10.99
2023-03-25T02:34:49.750Z,10.97
2023-03-25T02:37:26.124Z,10.94
2023-03-25T02:40:07.472Z,10.88
2023-03-25T02:42:40.173Z,10.85
2023-03-25T02:45:31.790Z,10.83
2023-03-25T02:48:10.865Z,10.76
2023-03-25T02:50:46.535Z,10.74
2023-03-25T02:53:25.648Z,10.73
2023-03-25T02:55:58.863Z,10.71
2023-03-25T02:58:29.383Z,10.69
2023-03-25T03:00:58.564Z,10.66
2023-03-25T03:03:29.911Z,10.64
2023-03-25T03:06:04.587Z,10.63
2023-03-25T03:08:56.631Z,10.62
2023-03-25T03:11:54.357Z,10.61
2023-03-25T03:14:46.261Z,10.59
2023-03-25T03:17:26.266Z,10.58
2023-03-25T03:20:01.244Z,10.58
2023-03-25T03:22:47.236Z,10.56
2023-03-25T03:25:44.528Z,10.55
2023-03-25T03:28:33.621Z,10.54
2023-03-25T03:31:56.588Z,10.52
2023-03-25T03:34:04.780Z,10.51
2023-03-25T03:36:38.593Z,10.48
2023-03-25T03:39:16.491Z,10.44
2023-03-25T03:41:48.483Z,10.44
2023-03-25T03:44:20.751Z,10.40
2023-03-25T03:46:54.236Z,10.41
2023-03-25T03:49:29.989Z,10.40
2023-03-25T03:52:17.811Z,10.39
2023-03-25T03:54:50.443Z,10.39
2023-03-25T03:57:26.504Z,10.36
2023-03-25T04:00:16.684Z,10.35
2023-03-25T04:02:58.959Z,10.33
2023-03-25T04:05:32.017Z,10.31
2023-03-25T04:08:17.500Z,10.28
2023-03-25T04:10:59.603Z,10.26
2023-03-25T04:13:35.146Z,10.27
2023-03-25T04:16:04.166Z,10.26
2023-03-25T04:18:33.496Z,10.25
2023-03-25T04:21:02.149Z,10.25
2023-03-25T04:23:29.724Z,10.26
2023-03-25T04:25:59.688Z,10.27
2023-03-25T04:28:27.521Z,10.28
2023-03-25T04:30:56.431Z,10.29
2023-03-25T04:33:24.807Z,10.29
2023-03-25T04:35:53.510Z,10.29
2023-03-25T04:38:21.971Z,10.30
2023-03-25T04:40:50.107Z,10.29
2023-03-25T04:43:18.504Z,10.31
2023-03-25T04:45:51.714Z,10.34
2023-03-25T04:48:25.532Z,10.36
2023-03-25T04:50:55.176Z,10.39
2023-03-25T04:53:23.291Z,10.39
2023-03-25T04:55:51.099Z,10.39
2023-03-25T04:58:19.231Z,10.41
2023-03-25T05:00:50.653Z,10.43
2023-03-25T05:03:21.241Z,10.45
2023-03-25T05:05:49.166Z,10.47
2023-03-25T05:08:17.792Z,10.51
2023-03-25T05:10:45.522Z,10.57
2023-03-25T05:13:13.372Z,10.64
2023-03-25T05:15:41.408Z,10.70
2023-03-25T05:18:13.197Z,10.80
2023-03-25T05:20:44.549Z,10.88
2023-03-25T05:23:15.388Z,10.99
2023-03-25T05:25:45.549Z,11.06
2023-03-25T05:28:14.217Z,11.14
2023-03-25T05:30:45.488Z,11.16
2023-03-25T05:33:16.745Z,11.21
2023-03-25T05:35:45.271Z,11.20
2023-03-25T05:38:17.583Z,11.21
2023-03-25T05:40:48.818Z,11.23
2023-03-25T05:43:17.042Z,11.27
2023-03-25T05:45:46.496Z,11.28
2023-03-25T05:48:14.028Z,11.31
2023-03-25T05:50:42.250Z,11.29
2023-03-25T05:53:16.548Z,11.30
2023-03-25T05:55:44.287Z,11.29
2023-03-25T05:58:12.245Z,11.24
2023-03-25T06:00:39.840Z,11.26
2023-03-25T06:03:07.966Z,11.25
2023-03-25T06:05:41.808Z,11.23
2023-03-25T06:08:09.109Z,11.22
2023-03-25T06:10:36.894Z,11.21
2023-03-25T06:13:04.820Z,11.21
2023-03-25T06:15:37.239Z,11.22
2023-03-25T06:18:05.112Z,11.22
2023-03-25T06:20:33.042Z,11.23
2023-03-25T06:23:01.683Z,11.24
2023-03-25T06:25:30.874Z,11.23
2023-03-25T06:28:00.369Z,11.23
2023-03-25T06:30:28.160Z,11.21
2023-03-25T06:32:56.047Z,11.20
2023-03-25T06:35:23.688Z,11.17
2023-03-25T06:37:51.586Z,11.22
2023-03-25T06:40:23.816Z,11.23
2023-03-25T06:42:51.536Z,11.25
2023-03-25T06:45:21.078Z,11.29
2023-03-25T06:47:55.056Z,11.32
2023-03-25T06:50:22.829Z,11.35
2023-03-25T06:52:50.401Z,11.39
2023-03-25T06:55:17.981Z,11.47
2023-03-25T06:57:45.894Z,11.58
2023-03-25T07:00:14.168Z,11.72
2023-03-25T07:02:41.766Z,11.89
2023-03-25T07:05:10.273Z,12.05
2023-03-25T07:07:37.959Z,12.23
2023-03-25T07:10:07.052Z,12.46
2023-03-25T07:12:36.588Z,12.72
2023-03-25T07:15:05.362Z,13.00
2023-03-25T07:17:33.352Z,13.27
2023-03-25T07:20:01.086Z,13.52
2023-03-25T07:22:29.044Z,13.76
2023-03-25T07:24:58.214Z,13.99
2023-03-25T07:27:25.958Z,14.20
2023-03-25T07:29:58.046Z,14.33
2023-03-25T07:32:25.922Z,14.38
2023-03-25T07:34:53.735Z,14.40
2023-03-25T07:37:21.778Z,14.41
2023-03-25T07:39:49.650Z,14.40
2023-03-25T07:42:17.442Z,14.38
2023-03-25T07:45:06.983Z,14.40
2023-03-25T07:47:35.251Z,14.45
2023-03-25T07:50:03.842Z,14.53
2023-03-25T07:52:31.844Z,14.67
2023-03-25T07:55:00.509Z,14.80
2023-03-25T07:57:28.206Z,14.91
2023-03-25T07:59:56.187Z,14.96
2023-03-25T08:02:24.349Z,14.99
2023-03-25T08:04:53.922Z,15.05
2023-03-25T08:07:21.562Z,15.11
2023-03-25T08:09:49.216Z,15.21
2023-03-25T08:12:16.641Z,15.31
2023-03-25T08:14:45.942Z,15.40
2023-03-25T08:17:13.613Z,15.45
2023-03-25T08:19:41.300Z,15.55
2023-03-25T08:22:09.113Z,15.67
2023-03-25T08:24:36.990Z,15.80
2023-03-25T08:27:14.998Z,15.96
2023-03-25T08:29:34.680Z,16.06
2023-03-25T08:32:02.643Z,16.17
2023-03-25T08:34:32.242Z,16.25
2023-03-25T08:36:59.922Z,16.28
2023-03-25T08:39:29.331Z,16.27
2023-03-25T08:41:58.750Z,16.21
2023-03-25T08:44:26.532Z,16.12
2023-03-25T08:46:54.322Z,16.04
2023-03-25T08:49:22.211Z,15.97
2023-03-25T08:51:50.019Z,15.93
2023-03-25T08:54:17.766Z,15.94
2023-03-25T08:56:45.823Z,15.95
2023-03-25T08:59:13.528Z,16.03
2023-03-25T09:01:43.037Z,16.07
2023-03-25T09:04:11.796Z,16.07
2023-03-25T09:06:47.763Z,16.10
2023-03-25T09:09:13.017Z,16.08
2023-03-25T09:11:40.716Z,16.10
2023-03-25T09:14:08.480Z,16.09
2023-03-25T09:16:36.305Z,16.15
2023-03-25T09:19:06.086Z,16.15
2023-03-25T09:21:33.636Z,16.21
2023-03-25T09:24:01.452Z,16.33
2023-03-25T09:26:29.209Z,16.45
2023-03-25T09:28:56.871Z,16.47
2023-03-25T09:31:25.502Z,16.49
2023-03-25T09:33:52.999Z,16.48
2023-03-25T09:36:20.827Z,16.48
2023-03-25T09:38:48.586Z,16.49
2023-03-25T09:41:53.447Z,16.50
2023-03-25T09:44:32.357Z,16.49
2023-03-25T09:47:01.966Z,16.47
2023-03-25T09:49:38.261Z,16.46
2023-03-25T09:52:14.423Z,16.42
2023-03-25T09:54:50.552Z,16.43
2023-03-25T09:57:26.682Z,16.43
2023-03-25T09:59:56.370Z,16.43
2023-03-25T10:02:57.861Z,16.49
2023-03-25T10:05:52.516Z,16.51
2023-03-25T10:08:35.118Z,16.52
2023-03-25T10:11:20.599Z,16.46
2023-03-25T10:14:11.360Z,16.42
2023-03-25T10:16:53.446Z,16.37
2023-03-25T10:19:44.643Z,16.33
2023-03-25T10:22:29.521Z,16.23
2023-03-25T10:25:17.873Z,16.03
2023-03-25T10:27:49.388Z,15.84
2023-03-25T10:30:22.500Z,15.64
2023-03-25T10:32:57.158Z,15.50
2023-03-25T10:35:45.554Z,15.34
2023-03-25T10:38:22.896Z,15.23
2023-03-25T10:41:01.319Z,15.09
2023-03-25T10:43:39.540Z,15.02
2023-03-25T10:46:47.999Z,14.92
2023-03-25T10:49:21.032Z,14.80
2023-03-25T10:51:56.396Z,14.67
2023-03-25T10:54:29.243Z,14.59
2023-03-25T10:57:05.304Z,14.51
2023-03-25T10:59:53.992Z,14.42
2023-03-25T11:02:29.351Z,14.36
2023-03-25T11:05:06.093Z,14.28
2023-03-25T11:07:41.135Z,14.16
2023-03-25T11:10:19.910Z,14.09
2023-03-25T11:12:52.024Z,14.01
2023-03-25T11:15:35.469Z,13.92
2023-03-25T11:18:35.139Z,13.86
2023-03-25T11:21:17.531Z,13.82
2023-03-25T11:23:48.798Z,13.75
2023-03-25T11:26:23.798Z,13.66
2023-03-25T11:28:56.204Z,13.66
2023-03-25T11:31:27.005Z,13.67
2023-03-25T11:34:08.602Z,13.65
2023-03-25T11:36:55.476Z,13.63
2023-03-25T11:39:39.332Z,13.62
2023-03-25T11:42:28.396Z,13.57
2023-03-25T11:44:59.052Z,13.54
2023-03-25T11:47:36.433Z,13.49
2023-03-25T11:50:06.480Z,13.47
2023-03-25T11:52:44.638Z,13.46
2023-03-25T11:55:31.372Z,13.46
2023-03-25T11:58:01.644Z,13.43
2023-03-25T12:00:39.848Z,13.43
2023-03-25T12:03:20.736Z,13.43
2023-03-25T12:06:02.606Z,13.45
2023-03-25T12:08:47.669Z,13.45
2023-03-25T12:11:39.231Z,13.47
2023-03-25T12:14:50.773Z,13.51
2023-03-25T12:17:54.410Z,13.54
2023-03-25T12:20:42.939Z,13.57
2023-03-25T12:23:43.380Z,13.57
2023-03-25T12:26:49.860Z,13.58
2023-03-25T12:29:28.844Z,13.53
2023-03-25T12:32:13.838Z,13.53
2023-03-25T12:34:48.752Z,13.51
2023-03-25T12:37:41.418Z,13.51
2023-03-25T12:40:29.368Z,13.51
2023-03-25T12:43:28.107Z,13.52
2023-03-25T12:46:23.653Z,13.50
2023-03-25T12:49:15.440Z,13.50
2023-03-25T12:51:54.345Z,13.52
2023-03-25T12:55:02.353Z,13.54
2023-03-25T12:58:02.500Z,13.61
2023-03-25T13:00:47.522Z,13.66
2023-03-25T13:03:23.720Z,13.72
2023-03-25T13:06:05.690Z,13.75
2023-03-25T13:08:57.377Z,13.77
2023-03-25T13:11:33.596Z,13.78
2023-03-25T13:14:06.814Z,13.78
2023-03-25T13:16:37.961Z,13.73
2023-03-25T13:19:17.079Z,13.71
2023-03-25T13:21:53.140Z,13.72
2023-03-25T13:24:35.544Z,13.68
2023-03-25T13:27:05.688Z,13.68
2023-03-25T13:29:49.481Z,13.67
2023-03-25T13:32:42.819Z,13.65
2023-03-25T13:35:37.145Z,13.65
2023-03-25T13:38:19.621Z,13.65
2023-03-25T13:40:52.608Z,13.63
2023-03-25T13:43:32.912Z,13.64
2023-03-25T13:46:20.599Z,13.67
2023-03-25T13:49:02.238Z,13.70
2023-03-25T13:51:30.268Z,13.71
2023-03-25T13:54:18.306Z,13.74
2023-03-25T13:57:12.627Z,13.78
2023-03-25T14:00:14.152Z,13.81
2023-03-25T14:03:06.918Z,13.84
2023-03-25T14:06:09.327Z,13.86
2023-03-25T14:08:48.424Z,13.84
2023-03-25T14:11:27.691Z,13.84
2023-03-25T14:14:15.922Z,13.83
2023-03-25T14:16:48.826Z,13.80
2023-03-25T14:19:30.332Z,13.78
2023-03-25T14:21:58.661Z,13.78
2023-03-25T14:24:36.310Z,13.75
2023-03-25T14:27:28.982Z,13.70
2023-03-25T14:30:08.260Z,13.68
2023-03-25T14:32:39.581Z,13.65
2023-03-25T14:35:37.390Z,13.64
2023-03-25T14:38:13.621Z,13.60
2023-03-25T14:41:01.290Z,13.55
2023-03-25T14:43:35.285Z,13.51
2023-03-25T14:46:17.852Z,13.44
2023-03-25T14:48:53.977Z,13.40
2023-03-25T14:51:34.430Z,13.30
2023-03-25T14:54:20.600Z,13.20
2023-03-25T14:57:07.865Z,13.13
2023-03-25T14:59:43.243Z,13.03
2023-03-25T15:02:23.323Z,12.98
2023-03-25T15:05:05.981Z,12.85
2023-03-25T15:07:53.515Z,12.72
2023-03-25T15:10:29.772Z,12.59
2023-03-25T15:13:05.114Z,12.51
2023-03-25T15:15:51.689Z,12.42
2023-03-25T15:18:40.910Z,12.35
2023-03-25T15:21:12.869Z,12.30
2023-03-25T15:23:47.623Z,12.25
2023-03-25T15:26:34.805Z,12.22
2023-03-25T15:29:27.600Z,12.22
2023-03-25T15:32:20.484Z,12.19
2023-03-25T15:35:17.938Z,12.24
2023-03-25T15:38:02.995Z,12.29
2023-03-25T15:41:13.055Z,12.29
2023-03-25T15:44:02.896Z,12.28
2023-03-25T15:47:00.019Z,12.29
2023-03-25T15:50:08.912Z,12.29
2023-03-25T15:53:41.841Z,12.27
2023-03-25T15:56:10.196Z,12.32
2023-03-25T15:59:06.552Z,12.31
2023-03-25T16:01:38.138Z,12.30
2023-03-25T16:04:14.193Z,12.31
2023-03-25T16:06:49.089Z,12.36
2023-03-25T16:09:26.032Z,12.42
2023-03-25T16:12:02.292Z,12.46
2023-03-25T16:14:32.864Z,12.46
2023-03-25T16:17:03.874Z,12.46
2023-03-25T16:19:52.820Z,12.47
2023-03-25T16:22:27.856Z,12.51
2023-03-25T16:25:06.175Z,12.50
2023-03-25T16:27:40.207Z,12.47
2023-03-25T16:30:29.923Z,12.45
2023-03-25T16:33:13.282Z,12.39
2023-03-25T16:35:48.969Z,12.31
2023-03-25T16:38:21.199Z,12.26
2023-03-25T16:40:49.966Z,12.17
2023-03-25T16:43:26.749Z,12.15
2023-03-25T16:46:02.935Z,12.10
2023-03-25T16:48:40.449Z,12.08
2023-03-25T16:51:25.138Z,12.07
2023-03-25T16:53:55.661Z,12.04
2023-03-25T16:56:30.276Z,11.99
2023-03-25T16:59:29.280Z,11.97
2023-03-25T17:01:59.885Z,11.97
2023-03-25T17:04:38.761Z,11.99
2023-03-25T17:07:14.553Z,12.02
2023-03-25T17:09:44.276Z,12.05
2023-03-25T17:12:19.054Z,12.07
2023-03-25T17:14:49.741Z,12.09
2023-03-25T17:17:35.374Z,12.13
2023-03-25T17:20:17.478Z,12.24
2023-03-25T17:23:06.874Z,12.32
2023-03-25T17:25:53.323Z,12.38
2023-03-25T17:28:29.235Z,12.43
2023-03-25T17:30:57.508Z,12.39
2023-03-25T17:33:38.239Z,12.34
2023-03-25T17:36:11.995Z,12.29
2023-03-25T17:38:43.297Z,12.22
2023-03-25T17:41:12.130Z,12.20
2023-03-25T17:43:47.896Z,12.20
2023-03-25T17:46:22.662Z,12.20
2023-03-25T17:48:52.873Z,12.23
2023-03-25T17:51:21.502Z,12.27
2023-03-25T17:53:49.515Z,12.26
2023-03-25T17:56:26.890Z,12.27
2023-03-25T17:59:00.046Z,12.25
2023-03-25T18:01:30.094Z,12.18
2023-03-25T18:03:58.220Z,12.11
2023-03-25T18:06:26.006Z,12.03
2023-03-25T18:08:54.169Z,11.98
2023-03-25T18:11:21.927Z,11.95
2023-03-25T18:13:49.956Z,11.92
2023-03-25T18:16:21.218Z,11.92
2023-03-25T18:18:49.097Z,11.90
2023-03-25T18:21:18.940Z,11.89
2023-03-25T18:23:48.119Z,11.87
2023-03-25T18:26:18.834Z,11.85
2023-03-25T18:28:47.996Z,11.84
2023-03-25T18:31:17.482Z,11.85
2023-03-25T18:33:51.002Z,11.87
2023-03-25T18:36:18.693Z,11.90
2023-03-25T18:38:47.158Z,11.94
2023-03-25T18:41:16.786Z,11.96
2023-03-25T18:43:45.088Z,11.99
2023-03-25T18:46:14.641Z,12.04
2023-03-25T18:48:43.208Z,12.06
2023-03-25T18:51:13.116Z,12.08
2023-03-25T18:53:41.293Z,12.09
2023-03-25T18:56:09.689Z,12.09
2023-03-25T18:58:37.790Z,12.09
2023-03-25T19:01:11.586Z,12.06
2023-03-25T19:03:40.705Z,12.02
2023-03-25T19:06:11.901Z,11.98
2023-03-25T19:08:42.798Z,11.95
2023-03-25T19:11:20.039Z,11.92
2023-03-25T19:13:40.968Z,11.87
2023-03-25T19:16:09.519Z,11.82
2023-03-25T19:18:36.873Z,11.77
2023-03-25T19:21:05.564Z,11.71
2023-03-25T19:23:34.712Z,11.67
2023-03-25T19:26:02.825Z,11.61
2023-03-25T19:28:30.554Z,11.52
2023-03-25T19:31:00.992Z,11.46
2023-03-25T19:33:30.511Z,11.38
2023-03-25T19:36:00.632Z,11.29
2023-03-25T19:38:32.257Z,11.24
2023-03-25T19:41:08.364Z,11.17
2023-03-25T19:43:36.763Z,11.09
2023-03-25T19:46:06.401Z,11.02
2023-03-25T19:48:35.013Z,10.99
2023-03-25T19:51:03.893Z,10.95
2023-03-25T19:53:31.835Z,10.91
2023-03-25T19:56:04.894Z,10.85
2023-03-25T19:58:33.984Z,10.76
2023-03-25T20:01:01.791Z,10.74
2023-03-25T20:03:31.653Z,10.74
2023-03-25T20:06:01.770Z,10.74
2023-03-25T20:08:30.431Z,10.73
2023-03-25T20:10:58.577Z,10.73
2023-03-25T20:13:26.694Z,10.76
2023-03-25T20:15:55.079Z,10.82
2023-03-25T20:18:23.161Z,10.87
2023-03-25T20:20:50.932Z,10.88
2023-03-25T20:23:18.526Z,10.89
2023-03-25T20:25:46.951Z,10.87
2023-03-25T20:28:14.668Z,10.89
2023-03-25T20:30:42.270Z,10.88
2023-03-25T20:33:10.679Z,10.85
2023-03-25T20:35:38.370Z,10.81
2023-03-25T20:38:06.048Z,10.82
2023-03-25T20:40:43.954Z,10.79
2023-03-25T20:43:06.093Z,10.76
2023-03-25T20:45:34.098Z,10.71
2023-03-25T20:48:03.278Z,10.68
2023-03-25T20:50:31.886Z,10.65
2023-03-25T20:52:59.648Z,10.58
2023-03-25T20:55:27.342Z,10.53
2023-03-25T20:57:55.188Z,10.51
2023-03-25T21:00:22.872Z,10.51
2023-03-25T21:02:51.830Z,10.48
2023-03-25T21:05:19.437Z,10.47
2023-03-25T21:07:47.828Z,10.43
2023-03-25T21:10:16.417Z,10.33
2023-03-25T21:12:45.033Z,10.29
2023-03-25T21:15:15.312Z,10.22
2023-03-25T21:17:43.735Z,10.22
2023-03-25T21:20:12.482Z,10.22
2023-03-25T21:22:44.630Z,10.21
2023-03-25T21:25:14.236Z,10.20
2023-03-25T21:27:44.405Z,10.20
2023-03-25T21:30:13.469Z,10.17
2023-03-25T21:32:41.456Z,10.21
2023-03-25T21:35:09.996Z,10.25
2023-03-25T21:37:38.261Z,10.32
2023-03-25T21:40:09.771Z,10.36
2023-03-25T21:42:38.087Z,10.38
2023-03-25T21:45:08.339Z,10.34
2023-03-25T21:47:36.561Z,10.29
2023-03-25T21:50:08.752Z,10.23
2023-03-25T21:52:37.876Z,10.18
2023-03-25T21:55:07.506Z,10.15
2023-03-25T21:57:37.106Z,10.14
2023-03-25T22:00:09.147Z,10.09
2023-03-25T22:02:45.146Z,10.03
2023-03-25T22:05:15.667Z,10.00
2023-03-25T22:07:44.199Z,9.95
2023-03-25T22:10:12.106Z,9.95
2023-03-25T22:12:40.051Z,9.91
2023-03-25T22:15:09.568Z,9.91
2023-03-25T22:17:37.087Z,9.89
2023-03-25T22:20:06.473Z,9.86
2023-03-25T22:22:35.966Z,9.83
2023-03-25T22:25:04.416Z,9.80
2023-03-25T22:27:32.008Z,9.79
2023-03-25T22:30:00.720Z,9.78
2023-03-25T22:32:28.548Z,9.78
2023-03-25T22:34:56.103Z,9.78
2023-03-25T22:37:24.154Z,9.80
2023-03-25T22:39:51.755Z,9.84
2023-03-25T22:42:19.848Z,9.91
2023-03-25T22:44:47.843Z,9.97
2023-03-25T22:47:15.625Z,10.05
2023-03-25T22:49:43.346Z,10.08
2023-03-25T22:52:11.937Z,10.06
2023-03-25T22:54:39.677Z,9.99
2023-03-25T22:57:07.325Z,9.93
2023-03-25T22:59:35.019Z,9.92
2023-03-25T23:02:02.729Z,9.95
2023-03-25T23:04:30.343Z,9.98
2023-03-25T23:07:07.236Z,10.02
2023-03-25T23:09:44.555Z,10.02
2023-03-25T23:12:16.394Z,10.02
2023-03-25T23:14:51.754Z,10.02
2023-03-25T23:17:20.498Z,10.01
2023-03-25T23:19:48.736Z,10.02
2023-03-25T23:22:16.705Z,10.00
2023-03-25T23:24:45.256Z,10.00
2023-03-25T23:27:13.447Z,9.97
2023-03-25T23:29:41.286Z,9.96
2023-03-25T23:32:10.403Z,9.95
2023-03-25T23:34:39.577Z,9.95
2023-03-25T23:37:08.615Z,9.97
2023-03-25T23:39:39.061Z,10.02
2023-03-25T23:42:06.760Z,10.04
2023-03-25T23:44:35.750Z,10.10
2023-03-25T23:47:03.922Z,10.14
2023-03-25T23:49:32.766Z,10.18
2023-03-25T23:52:00.582Z,10.22
2023-03-25T23:54:28.864Z,10.28
2023-03-25T23:56:57.521Z,10.31
2023-03-25T23:59:25.242Z,10.35
